sensor_id;sensor_type;location;lat;lon;timestamp;pressure;altitude;pressure_sealevel;temperature;humidity
37486;BME280;23341;50.296;18.960;2022-07-29T00:01:27;150329.19;;;16.73;76.77
37486;BME280;23341;50.296;18.960;2022-07-29T00:06:30;150286.44;;;16.57;78.75
37486;BME280;23341;50.296;18.960;2022-07-29T00:11:33;150304.56;;;16.64;78.08
37486;BME280;23341;50.296;18.960;2022-07-29T00:16:38;150303.28;;;16.63;78.02
37486;BME280;23341;50.296;18.960;2022-07-29T00:21:42;150305.84;;;16.64;76.95
37486;BME280;23341;50.296;18.960;2022-07-29T00:26:46;150280.00;;;16.54;76.24
37486;BME280;23341;50.296;18.960;2022-07-29T00:31:51;150300.69;;;16.62;75.31
37486;BME280;23341;50.296;18.960;2022-07-29T00:36:54;150318.78;;;16.69;72.93
37486;BME280;23341;50.296;18.960;2022-07-29T00:41:57;150329.19;;;16.73;72.86
37486;BME280;23341;50.296;18.960;2022-07-29T00:47:03;150316.22;;;16.68;73.11
37486;BME280;23341;50.296;18.960;2022-07-29T00:52:07;150342.13;;;16.78;71.87
37486;BME280;23341;50.296;18.960;2022-07-29T00:57:12;150308.44;;;16.65;72.15
37486;BME280;23341;50.296;18.960;2022-07-29T01:02:17;150302.00;;;16.63;71.72
37486;BME280;23341;50.296;18.960;2022-07-29T01:07:20;150316.22;;;16.68;71.08
37486;BME280;23341;50.296;18.960;2022-07-29T01:12:25;150307.13;;;16.65;70.70
37486;BME280;23341;50.296;18.960;2022-07-29T01:17:33;150289.06;;;16.58;70.64
37486;BME280;23341;50.296;18.960;2022-07-29T01:23:04;150269.66;;;16.50;70.71
37486;BME280;23341;50.296;18.960;2022-07-29T01:28:33;150280.00;;;16.54;70.76
37486;BME280;23341;50.296;18.960;2022-07-29T01:33:43;150286.44;;;16.57;70.12
37486;BME280;23341;50.296;18.960;2022-07-29T01:38:59;150272.22;;;16.51;69.47
37486;BME280;23341;50.296;18.960;2022-07-29T01:44:13;150282.56;;;16.55;69.35
37486;BME280;23341;50.296;18.960;2022-07-29T01:49:24;150263.16;;;16.47;68.88
37486;BME280;23341;50.296;18.960;2022-07-29T01:54:34;150251.50;;;16.43;69.02
37486;BME280;23341;50.296;18.960;2022-07-29T01:59:40;150246.38;;;16.41;68.79
37486;BME280;23341;50.296;18.960;2022-07-29T02:04:47;150250.22;;;16.42;67.77
37486;BME280;23341;50.296;18.960;2022-07-29T02:09:52;150259.28;;;16.46;67.90
37486;BME280;23341;50.296;18.960;2022-07-29T02:15:00;150217.88;;;16.30;68.55
37486;BME280;23341;50.296;18.960;2022-07-29T02:20:05;150248.94;;;16.42;67.10
37486;BME280;23341;50.296;18.960;2022-07-29T02:25:11;150268.34;;;16.49;67.02
37486;BME280;23341;50.296;18.960;2022-07-29T02:30:17;150285.16;;;16.56;65.83
37486;BME280;23341;50.296;18.960;2022-07-29T02:35:21;150290.34;;;16.58;65.68
37486;BME280;23341;50.296;18.960;2022-07-29T02:40:25;150292.94;;;16.59;65.20
37486;BME280;23341;50.296;18.960;2022-07-29T02:45:31;150285.16;;;16.56;65.80
37486;BME280;23341;50.296;18.960;2022-07-29T02:50:39;150254.09;;;16.44;66.36
37486;BME280;23341;50.296;18.960;2022-07-29T02:55:49;150292.94;;;16.59;66.20
37486;BME280;23341;50.296;18.960;2022-07-29T03:00:57;150348.59;;;16.81;65.59
37486;BME280;23341;50.296;18.960;2022-07-29T03:06:02;150353.81;;;16.83;65.00
37486;BME280;23341;50.296;18.960;2022-07-29T03:16:58;150344.75;;;16.80;65.13
37486;BME280;23341;50.296;18.960;2022-07-29T03:22:02;150320.06;;;16.70;65.84
37486;BME280;23341;50.296;18.960;2022-07-29T03:27:05;150316.22;;;16.68;65.52
37486;BME280;23341;50.296;18.960;2022-07-29T03:32:10;150329.19;;;16.73;65.63
37486;BME280;23341;50.296;18.960;2022-07-29T03:37:14;150313.63;;;16.67;65.81
37486;BME280;23341;50.296;18.960;2022-07-29T03:42:21;150327.91;;;16.73;66.73
37486;BME280;23341;50.296;18.960;2022-07-29T03:47:28;150365.47;;;16.88;65.83
37486;BME280;23341;50.296;18.960;2022-07-29T03:52:52;150321.41;;;16.70;67.08
37486;BME280;23341;50.296;18.960;2022-07-29T03:57:56;150307.13;;;16.65;67.55
37486;BME280;23341;50.296;18.960;2022-07-29T04:03:04;150317.50;;;16.69;67.87
37486;BME280;23341;50.296;18.960;2022-07-29T04:08:12;150322.69;;;16.71;67.80
37486;BME280;23341;50.296;18.960;2022-07-29T04:13:16;150362.81;;;16.87;67.27
37486;BME280;23341;50.296;18.960;2022-07-29T04:18:21;150390.03;;;16.97;67.58
37486;BME280;23341;50.296;18.960;2022-07-29T04:23:24;150436.63;;;17.16;67.33
37486;BME280;23341;50.296;18.960;2022-07-29T04:28:28;150501.34;;;17.41;66.17
37486;BME280;23341;50.296;18.960;2022-07-29T04:33:33;150509.13;;;17.44;66.68
37486;BME280;23341;50.296;18.960;2022-07-29T04:38:37;150545.38;;;17.59;66.06
37486;BME280;23341;50.296;18.960;2022-07-29T04:43:40;150540.22;;;17.57;66.26
37486;BME280;23341;50.296;18.960;2022-07-29T04:48:46;150519.47;;;17.48;66.31
37486;BME280;23341;50.296;18.960;2022-07-29T04:53:49;150520.78;;;17.49;66.33
37486;BME280;23341;50.296;18.960;2022-07-29T04:58:53;150484.53;;;17.35;68.04
37486;BME280;23341;50.296;18.960;2022-07-29T05:03:58;150463.81;;;17.26;68.50
37486;BME280;23341;50.296;18.960;2022-07-29T05:09:02;150523.34;;;17.50;68.40
37486;BME280;23341;50.296;18.960;2022-07-29T05:14:05;150531.13;;;17.53;68.92
37486;BME280;23341;50.296;18.960;2022-07-29T05:19:10;150615.38;;;17.86;68.33
37486;BME280;23341;50.296;18.960;2022-07-29T05:24:15;150608.88;;;17.84;68.29
37486;BME280;23341;50.296;18.960;2022-07-29T05:29:20;150647.75;;;17.99;68.64
37486;BME280;23341;50.296;18.960;2022-07-29T05:34:44;150726.75;;;18.30;68.17
37486;BME280;23341;50.296;18.960;2022-07-29T05:39:52;150711.19;;;18.24;69.14
37486;BME280;23341;50.296;18.960;2022-07-29T05:44:58;150752.63;;;18.40;68.36
37486;BME280;23341;50.296;18.960;2022-07-29T05:50:03;150810.97;;;18.63;67.95
37486;BME280;23341;50.296;18.960;2022-07-29T05:55:08;150869.31;;;18.86;67.78
37486;BME280;23341;50.296;18.960;2022-07-29T06:00:12;150914.69;;;19.04;67.09
37486;BME280;23341;50.296;18.960;2022-07-29T06:05:17;151097.53;;;19.76;64.62
37486;BME280;23341;50.296;18.960;2022-07-29T06:10:21;151486.84;;;21.29;59.04
37486;BME280;23341;50.296;18.960;2022-07-29T06:15:28;152112.00;;;23.74;51.23
37486;BME280;23341;50.296;18.960;2022-07-29T06:20:32;152507.59;;;25.30;46.16
37486;BME280;23341;50.296;18.960;2022-07-29T06:25:36;152950.53;;;27.03;42.88
37486;BME280;23341;50.296;18.960;2022-07-29T06:30:39;152987.06;;;27.17;41.51
37486;BME280;23341;50.296;18.960;2022-07-29T06:35:44;153289.63;;;28.36;39.15
37486;BME280;23341;50.296;18.960;2022-07-29T06:40:56;153263.47;;;28.26;39.10
37486;BME280;23341;50.296;18.960;2022-07-29T06:46:08;153135.72;;;27.76;40.15
37486;BME280;23341;50.296;18.960;2022-07-29T06:51:13;153234.81;;;28.14;39.07
37486;BME280;23341;50.296;18.960;2022-07-29T06:56:17;153631.53;;;29.69;36.98
37486;BME280;23341;50.296;18.960;2022-07-29T07:01:21;152898.41;;;26.83;41.55
37486;BME280;23341;50.296;18.960;2022-07-29T07:06:26;152656.09;;;25.88;44.76
37486;BME280;23341;50.296;18.960;2022-07-29T07:11:30;152593.53;;;25.63;45.10
37486;BME280;23341;50.296;18.960;2022-07-29T07:16:33;152506.31;;;25.29;46.80
37486;BME280;23341;50.296;18.960;2022-07-29T07:21:38;152390.41;;;24.84;48.39
37486;BME280;23341;50.296;18.960;2022-07-29T07:26:41;152572.69;;;25.55;47.06
37486;BME280;23341;50.296;18.960;2022-07-29T07:31:45;153397.91;;;28.78;40.16
37486;BME280;23341;50.296;18.960;2022-07-29T07:36:50;153168.31;;;27.88;41.62
37486;BME280;23341;50.296;18.960;2022-07-29T07:41:53;153153.94;;;27.83;42.13
37486;BME280;23341;50.296;18.960;2022-07-29T07:46:56;152976.63;;;27.13;43.41
37486;BME280;23341;50.296;18.960;2022-07-29T07:52:15;152736.81;;;26.19;46.19
37486;BME280;23341;50.296;18.960;2022-07-29T07:57:18;152553.16;;;25.47;48.52
37486;BME280;23341;50.296;18.960;2022-07-29T08:02:22;153523.19;;;29.27;39.76
37486;BME280;23341;50.296;18.960;2022-07-29T08:07:27;154080.94;;;31.45;35.04
37486;BME280;23341;50.296;18.960;2022-07-29T08:12:31;153431.81;;;28.91;39.68
37486;BME280;23341;50.296;18.960;2022-07-29T08:17:35;153943.69;;;30.91;36.60
37486;BME280;23341;50.296;18.960;2022-07-29T08:22:40;154211.66;;;31.96;35.33
37486;BME280;23341;50.296;18.960;2022-07-29T08:27:43;154613.19;;;33.53;32.32
37486;BME280;23341;50.296;18.960;2022-07-29T08:32:47;155110.72;;;35.47;28.50
37486;BME280;23341;50.296;18.960;2022-07-29T08:37:57;155037.38;;;35.18;28.31
37486;BME280;23341;50.296;18.960;2022-07-29T08:43:06;154651.16;;;33.68;30.74
37486;BME280;23341;50.296;18.960;2022-07-29T08:48:11;154792.50;;;34.23;30.60
37486;BME280;23341;50.296;18.960;2022-07-29T08:53:17;154686.47;;;33.81;31.07
37486;BME280;23341;50.296;18.960;2022-07-29T08:58:21;154721.78;;;33.95;30.67
37486;BME280;23341;50.296;18.960;2022-07-29T09:03:30;154793.81;;;34.23;29.81
37486;BME280;23341;50.296;18.960;2022-07-29T09:08:35;154995.47;;;35.02;29.35
37486;BME280;23341;50.296;18.960;2022-07-29T09:13:39;154915.56;;;34.71;29.35
37486;BME280;23341;50.296;18.960;2022-07-29T09:18:43;154487.59;;;33.04;31.81
37486;BME280;23341;50.296;18.960;2022-07-29T09:24:03;154023.41;;;31.23;34.35
37486;BME280;23341;50.296;18.960;2022-07-29T09:29:09;153820.88;;;30.43;36.64
37486;BME280;23341;50.296;18.960;2022-07-29T09:34:26;153690.28;;;29.92;38.05
37486;BME280;23341;50.296;18.960;2022-07-29T09:39:32;153738.59;;;30.11;36.95
37486;BME280;23341;50.296;18.960;2022-07-29T09:44:46;153882.28;;;30.67;36.20
37486;BME280;23341;50.296;18.960;2022-07-29T09:49:54;153916.28;;;30.81;36.61
37486;BME280;23341;50.296;18.960;2022-07-29T09:55:05;153460.53;;;29.03;40.11
37486;BME280;23341;50.296;18.960;2022-07-29T10:00:09;153437.00;;;28.93;40.78
37486;BME280;23341;50.296;18.960;2022-07-29T10:05:20;153174.81;;;27.91;41.36
37486;BME280;23341;50.296;18.960;2022-07-29T10:10:25;153250.44;;;28.20;41.60
37486;BME280;23341;50.296;18.960;2022-07-29T10:15:30;153631.53;;;29.69;39.13
37486;BME280;23341;50.296;18.960;2022-07-29T10:20:36;154036.44;;;31.28;36.39
37486;BME280;23341;50.296;18.960;2022-07-29T10:25:39;153963.28;;;30.99;36.49
37486;BME280;23341;50.296;18.960;2022-07-29T10:30:50;153783.03;;;30.29;37.05
37486;BME280;23341;50.296;18.960;2022-07-29T10:36:04;153816.97;;;30.42;37.51
37486;BME280;23341;50.296;18.960;2022-07-29T10:41:49;154007.69;;;31.16;35.51
37486;BME280;23341;50.296;18.960;2022-07-29T10:46:56;154154.13;;;31.74;34.46
37486;BME280;23341;50.296;18.960;2022-07-29T10:52:04;153884.88;;;30.68;36.56
37486;BME280;23341;50.296;18.960;2022-07-29T10:57:17;153720.31;;;30.04;37.04
37486;BME280;23341;50.296;18.960;2022-07-29T11:02:43;153900.56;;;30.75;35.94
37486;BME280;23341;50.296;18.960;2022-07-29T11:08:17;153788.22;;;30.31;37.05
37486;BME280;23341;50.296;18.960;2022-07-29T11:13:47;153850.94;;;30.55;36.03
37486;BME280;23341;50.296;18.960;2022-07-29T11:19:19;153559.69;;;29.41;38.53
37486;BME280;23341;50.296;18.960;2022-07-29T11:24:33;153735.94;;;30.10;37.49
37486;BME280;23341;50.296;18.960;2022-07-29T11:29:41;153777.78;;;30.27;37.10
37486;BME280;23341;50.296;18.960;2022-07-29T11:35:16;153685.06;;;29.90;37.35
37486;BME280;23341;50.296;18.960;2022-07-29T11:40:40;153700.72;;;29.97;37.23
37486;BME280;23341;50.296;18.960;2022-07-29T11:45:46;153944.97;;;30.92;36.25
37486;BME280;23341;50.296;18.960;2022-07-29T11:50:51;153969.84;;;31.02;36.05
37486;BME280;23341;50.296;18.960;2022-07-29T11:55:58;153926.72;;;30.85;34.85
37486;BME280;23341;50.296;18.960;2022-07-29T12:01:03;153916.28;;;30.81;35.38
37486;BME280;23341;50.296;18.960;2022-07-29T12:06:11;153737.28;;;30.11;36.56
37486;BME280;23341;50.296;18.960;2022-07-29T12:11:20;153780.38;;;30.28;36.78
37486;BME280;23341;50.296;18.960;2022-07-29T12:16:34;153753.00;;;30.17;36.84
37486;BME280;23341;50.296;18.960;2022-07-29T12:21:45;153884.88;;;30.68;36.53
37486;BME280;23341;50.296;18.960;2022-07-29T12:27:02;153811.72;;;30.40;36.58
37486;BME280;23341;50.296;18.960;2022-07-29T12:32:07;153814.38;;;30.41;37.02
37486;BME280;23341;50.296;18.960;2022-07-29T12:37:21;153674.63;;;29.86;37.59
37486;BME280;23341;50.296;18.960;2022-07-29T12:43:06;153639.38;;;29.73;37.78
37486;BME280;23341;50.296;18.960;2022-07-29T12:48:10;153690.28;;;29.92;36.77
37486;BME280;23341;50.296;18.960;2022-07-29T12:53:13;153884.88;;;30.68;36.18
37486;BME280;23341;50.296;18.960;2022-07-29T12:58:31;153908.44;;;30.78;35.17
37486;BME280;23341;50.296;18.960;2022-07-29T13:03:49;153816.97;;;30.42;36.19
37486;BME280;23341;50.296;18.960;2022-07-29T13:09:08;153726.84;;;30.07;36.27
37486;BME280;23341;50.296;18.960;2022-07-29T13:14:29;153947.63;;;30.93;35.67
37486;BME280;23341;50.296;18.960;2022-07-29T13:19:35;153968.53;;;31.01;34.51
37486;BME280;23341;50.296;18.960;2022-07-29T13:24:46;154143.66;;;31.70;34.22
37486;BME280;23341;50.296;18.960;2022-07-29T13:29:51;153675.91;;;29.87;37.21
37486;BME280;23341;50.296;18.960;2022-07-29T13:34:55;153581.88;;;29.50;38.18
37486;BME280;23341;50.296;18.960;2022-07-29T13:39:58;153403.09;;;28.80;39.56
37486;BME280;23341;50.296;18.960;2022-07-29T13:45:05;153626.28;;;29.67;37.81
37486;BME280;23341;50.296;18.960;2022-07-29T13:50:09;153653.72;;;29.78;37.27
37486;BME280;23341;50.296;18.960;2022-07-29T13:55:12;153720.31;;;30.04;36.79
37486;BME280;23341;50.296;18.960;2022-07-29T14:00:18;154245.63;;;32.09;33.75
37486;BME280;23341;50.296;18.960;2022-07-29T14:05:22;154728.38;;;33.98;30.83
37486;BME280;23341;50.296;18.960;2022-07-29T14:10:25;154643.28;;;33.64;30.64
37486;BME280;23341;50.296;18.960;2022-07-29T14:15:30;154748.03;;;34.05;30.32
37486;BME280;23341;50.296;18.960;2022-07-29T14:20:40;154750.63;;;34.06;30.21
37486;BME280;23341;50.296;18.960;2022-07-29T14:25:43;154647.19;;;33.66;31.12
37486;BME280;23341;50.296;18.960;2022-07-29T14:30:51;154261.28;;;32.15;33.03
37486;BME280;23341;50.296;18.960;2022-07-29T14:35:55;153884.88;;;30.68;36.08
37486;BME280;23341;50.296;18.960;2022-07-29T14:41:02;154082.22;;;31.46;35.27
37486;BME280;23341;50.296;18.960;2022-07-29T14:46:07;154572.63;;;33.37;32.59
37486;BME280;23341;50.296;18.960;2022-07-29T14:51:10;154953.50;;;34.85;30.02
37486;BME280;23341;50.296;18.960;2022-07-29T14:56:14;154550.38;;;33.28;32.17
37486;BME280;23341;50.296;18.960;2022-07-29T15:01:38;153750.41;;;30.16;37.23
37486;BME280;23341;50.296;18.960;2022-07-29T15:06:42;153918.88;;;30.82;36.50
37486;BME280;23341;50.296;18.960;2022-07-29T15:11:45;153770.00;;;30.24;37.67
37486;BME280;23341;50.296;18.960;2022-07-29T15:16:50;153391.34;;;28.76;40.43
37486;BME280;23341;50.296;18.960;2022-07-29T15:21:54;153116.09;;;27.68;42.30
37486;BME280;23341;50.296;18.960;2022-07-29T15:27:00;153053.53;;;27.43;43.28
37486;BME280;23341;50.296;18.960;2022-07-29T15:32:06;153001.38;;;27.23;44.26
37486;BME280;23341;50.296;18.960;2022-07-29T15:37:09;152914.00;;;26.89;44.61
37486;BME280;23341;50.296;18.960;2022-07-29T15:42:13;152937.50;;;26.98;45.07
37486;BME280;23341;50.296;18.960;2022-07-29T15:47:20;152893.16;;;26.81;45.77
37486;BME280;23341;50.296;18.960;2022-07-29T15:52:23;152876.25;;;26.74;46.12
37486;BME280;23341;50.296;18.960;2022-07-29T15:57:27;152838.44;;;26.59;46.15
37486;BME280;23341;50.296;18.960;2022-07-29T16:02:32;152839.78;;;26.60;46.54
37486;BME280;23341;50.296;18.960;2022-07-29T16:07:36;152876.25;;;26.74;46.56
37486;BME280;23341;50.296;18.960;2022-07-29T16:12:39;152927.09;;;26.94;46.90
37486;BME280;23341;50.296;18.960;2022-07-29T16:17:44;152877.56;;;26.75;47.53
37486;BME280;23341;50.296;18.960;2022-07-29T16:22:47;152876.25;;;26.74;48.26
37486;BME280;23341;50.296;18.960;2022-07-29T16:27:51;152851.50;;;26.64;50.03
37486;BME280;23341;50.296;18.960;2022-07-29T16:33:01;152788.91;;;26.40;51.73
37486;BME280;23341;50.296;18.960;2022-07-29T16:38:09;152687.34;;;26.00;53.31
37486;BME280;23341;50.296;18.960;2022-07-29T16:43:13;152519.31;;;25.34;54.57
37486;BME280;23341;50.296;18.960;2022-07-29T16:48:18;152340.97;;;24.64;59.13
37486;BME280;23341;50.296;18.960;2022-07-29T16:53:21;152187.44;;;24.04;62.28
37486;BME280;23341;50.296;18.960;2022-07-29T16:58:30;152113.28;;;23.75;64.76
37486;BME280;23341;50.296;18.960;2022-07-29T17:03:35;151967.66;;;23.18;67.97
37486;BME280;23341;50.296;18.960;2022-07-29T17:09:02;151949.44;;;23.11;69.06
37486;BME280;23341;50.296;18.960;2022-07-29T17:14:06;151979.34;;;23.22;69.50
37486;BME280;23341;50.296;18.960;2022-07-29T17:19:12;151954.66;;;23.13;70.35
37486;BME280;23341;50.296;18.960;2022-07-29T17:24:15;151936.44;;;23.06;71.27
37486;BME280;23341;50.296;18.960;2022-07-29T17:29:19;152004.03;;;23.32;70.74
37486;BME280;23341;50.296;18.960;2022-07-29T17:34:24;152033.94;;;23.44;70.66
37486;BME280;23341;50.296;18.960;2022-07-29T17:39:28;152078.16;;;23.61;70.25
37486;BME280;23341;50.296;18.960;2022-07-29T17:44:31;152099.00;;;23.69;70.07
37486;BME280;23341;50.296;18.960;2022-07-29T17:49:38;152082.03;;;23.63;71.02
37486;BME280;23341;50.296;18.960;2022-07-29T17:54:42;152037.81;;;23.45;72.44
37486;BME280;23341;50.296;18.960;2022-07-29T17:59:45;151966.34;;;23.17;75.99
37486;BME280;23341;50.296;18.960;2022-07-29T18:04:50;151936.44;;;23.06;77.68
37486;BME280;23341;50.296;18.960;2022-07-29T18:09:53;151880.53;;;22.84;82.27
37486;BME280;23341;50.296;18.960;2022-07-29T18:15:02;151845.44;;;22.70;85.16
37486;BME280;23341;50.296;18.960;2022-07-29T18:20:08;151757.03;;;22.35;87.14
37486;BME280;23341;50.296;18.960;2022-07-29T18:25:12;151651.81;;;21.94;92.57
37486;BME280;23341;50.296;18.960;2022-07-29T18:30:16;151550.53;;;21.54;96.67
37486;BME280;23341;50.296;18.960;2022-07-29T18:35:21;151540.16;;;21.50;99.63
37486;BME280;23341;50.296;18.960;2022-07-29T18:40:25;151506.34;;;21.37;100.00
37486;BME280;23341;50.296;18.960;2022-07-29T18:45:30;151459.56;;;21.18;99.76
37486;BME280;23341;50.296;18.960;2022-07-29T18:50:35;151381.69;;;20.88;100.00
37486;BME280;23341;50.296;18.960;2022-07-29T18:55:38;151331.06;;;20.68;100.00
37486;BME280;23341;50.296;18.960;2022-07-29T19:00:42;151310.31;;;20.60;100.00
37486;BME280;23341;50.296;18.960;2022-07-29T19:05:46;151319.41;;;20.63;100.00
37486;BME280;23341;50.296;18.960;2022-07-29T19:10:50;151335.00;;;20.69;100.00
37486;BME280;23341;50.296;18.960;2022-07-29T19:15:54;151335.00;;;20.69;100.00
37486;BME280;23341;50.296;18.960;2022-07-29T19:20:59;151328.50;;;20.67;100.00
37486;BME280;23341;50.296;18.960;2022-07-29T19:26:02;151318.09;;;20.63;100.00
37486;BME280;23341;50.296;18.960;2022-07-29T19:31:09;151316.81;;;20.62;100.00
37486;BME280;23341;50.296;18.960;2022-07-29T19:36:14;151370.03;;;20.83;100.00
37486;BME280;23341;50.296;18.960;2022-07-29T19:41:17;151385.56;;;20.89;100.00
37486;BME280;23341;50.296;18.960;2022-07-29T19:46:21;151418.03;;;21.02;100.00
37486;BME280;23341;50.296;18.960;2022-07-29T19:51:26;151399.88;;;20.95;100.00
37486;BME280;23341;50.296;18.960;2022-07-29T19:56:29;151342.75;;;20.72;100.00
37486;BME280;23341;50.296;18.960;2022-07-29T20:01:33;151306.44;;;20.58;100.00
37486;BME280;23341;50.296;18.960;2022-07-29T20:06:38;151335.00;;;20.69;100.00
37486;BME280;23341;50.296;18.960;2022-07-29T20:11:41;151289.59;;;20.52;100.00
37486;BME280;23341;50.296;18.960;2022-07-29T20:16:45;151223.34;;;20.25;100.00
37486;BME280;23341;50.296;18.960;2022-07-29T20:21:50;151202.63;;;20.17;100.00
37486;BME280;23341;50.296;18.960;2022-07-29T20:26:53;151101.41;;;19.77;100.00
37486;BME280;23341;50.296;18.960;2022-07-29T20:31:56;151048.19;;;19.57;100.00
37486;BME280;23341;50.296;18.960;2022-07-29T20:37:01;151019.69;;;19.45;100.00
37486;BME280;23341;50.296;18.960;2022-07-29T20:42:05;151026.16;;;19.48;100.00
37486;BME280;23341;50.296;18.960;2022-07-29T20:47:09;151044.31;;;19.55;100.00
37486;BME280;23341;50.296;18.960;2022-07-29T20:52:13;151058.63;;;19.61;100.00
37486;BME280;23341;50.296;18.960;2022-07-29T20:57:17;151056.00;;;19.60;100.00
37486;BME280;23341;50.296;18.960;2022-07-29T21:02:39;151054.69;;;19.59;100.00
37486;BME280;23341;50.296;18.960;2022-07-29T21:07:44;151027.44;;;19.48;100.00
37486;BME280;23341;50.296;18.960;2022-07-29T21:12:48;151061.25;;;19.62;100.00
37486;BME280;23341;50.296;18.960;2022-07-29T21:17:51;151065.13;;;19.63;100.00
37486;BME280;23341;50.296;18.960;2022-07-29T21:23:02;151061.25;;;19.62;100.00
37486;BME280;23341;50.296;18.960;2022-07-29T21:28:06;151071.63;;;19.66;100.00
37486;BME280;23341;50.296;18.960;2022-07-29T21:33:28;151063.84;;;19.63;100.00
37486;BME280;23341;50.296;18.960;2022-07-29T21:38:33;151028.78;;;19.49;100.00
37486;BME280;23341;50.296;18.960;2022-07-29T21:43:37;150982.06;;;19.31;100.00
37486;BME280;23341;50.296;18.960;2022-07-29T21:48:43;151009.31;;;19.41;100.00
37486;BME280;23341;50.296;18.960;2022-07-29T21:53:47;151046.91;;;19.56;100.00
37486;BME280;23341;50.296;18.960;2022-07-29T21:58:54;151028.78;;;19.49;100.00
37486;BME280;23341;50.296;18.960;2022-07-29T22:03:57;151021.00;;;19.46;100.00
37486;BME280;23341;50.296;18.960;2022-07-29T22:09:02;150989.88;;;19.34;100.00
37486;BME280;23341;50.296;18.960;2022-07-29T22:14:06;151004.13;;;19.39;100.00
37486;BME280;23341;50.296;18.960;2022-07-29T22:19:09;150989.88;;;19.34;100.00
37486;BME280;23341;50.296;18.960;2022-07-29T22:24:14;150976.91;;;19.29;100.00
37486;BME280;23341;50.296;18.960;2022-07-29T22:29:18;151005.41;;;19.40;100.00
37486;BME280;23341;50.296;18.960;2022-07-29T22:34:21;150988.56;;;19.33;100.00
37486;BME280;23341;50.296;18.960;2022-07-29T22:39:31;150953.59;;;19.19;100.00
37486;BME280;23341;50.296;18.960;2022-07-29T22:44:36;150914.69;;;19.04;100.00
37486;BME280;23341;50.296;18.960;2022-07-29T22:49:39;150919.88;;;19.06;100.00
37486;BME280;23341;50.296;18.960;2022-07-29T22:54:44;150923.75;;;19.08;100.00
37486;BME280;23341;50.296;18.960;2022-07-29T22:59:47;150932.84;;;19.11;100.00
37486;BME280;23341;50.296;18.960;2022-07-29T23:04:50;150938.00;;;19.13;100.00
37486;BME280;23341;50.296;18.960;2022-07-29T23:09:55;150931.56;;;19.11;100.00
37486;BME280;23341;50.296;18.960;2022-07-29T23:14:58;150880.97;;;18.91;100.00
37486;BME280;23341;50.296;18.960;2022-07-29T23:20:06;150909.53;;;19.02;100.00
37486;BME280;23341;50.296;18.960;2022-07-29T23:25:12;150862.81;;;18.84;100.00
37486;BME280;23341;50.296;18.960;2022-07-29T23:30:15;150880.97;;;18.91;100.00
37486;BME280;23341;50.296;18.960;2022-07-29T23:35:19;150877.13;;;18.89;100.00
37486;BME280;23341;50.296;18.960;2022-07-29T23:40:23;150846.00;;;18.77;100.00
37486;BME280;23341;50.296;18.960;2022-07-29T23:45:27;150866.75;;;18.85;100.00
37486;BME280;23341;50.296;18.960;2022-07-29T23:50:46;150870.63;;;18.87;100.00
37486;BME280;23341;50.296;18.960;2022-07-29T23:55:50;150880.97;;;18.91;100.00
